createdAt,value
2022-08-04T00:00:44.541Z,25.00
2022-08-04T00:03:18.728Z,25.00
2022-08-04T00:05:48.239Z,24.90
2022-08-04T00:08:20.719Z,24.90
2022-08-04T00:10:50.320Z,24.90
2022-08-04T00:13:22.134Z,24.80
2022-08-04T00:15:58.469Z,24.80
2022-08-04T00:18:48.174Z,24.70
2022-08-04T00:21:21.110Z,24.70
2022-08-04T00:24:11.136Z,24.60
2022-08-04T00:26:41.102Z,24.60
2022-08-04T00:29:12.919Z,24.50
2022-08-04T00:31:55.922Z,24.50
2022-08-04T00:34:28.444Z,24.40
2022-08-04T00:36:58.227Z,24.40
2022-08-04T00:39:25.726Z,24.40
2022-08-04T00:42:23.367Z,24.30
2022-08-04T00:45:22.153Z,24.30
2022-08-04T00:48:16.168Z,24.20
2022-08-04T00:50:51.552Z,24.20
2022-08-04T00:53:36.028Z,24.20
2022-08-04T00:56:28.633Z,24.20
2022-08-04T00:59:24.347Z,24.10
2022-08-04T01:02:10.447Z,24.10
2022-08-04T01:04:58.623Z,24.10
2022-08-04T01:07:45.007Z,24.10
2022-08-04T01:10:32.611Z,24.10
2022-08-04T01:13:15.345Z,24.00
2022-08-04T01:16:00.635Z,24.10
2022-08-04T01:18:42.346Z,24.00
2022-08-04T01:21:27.205Z,24.00
2022-08-04T01:24:18.126Z,24.00
2022-08-04T01:27:06.601Z,24.00
2022-08-04T01:29:47.217Z,24.00
2022-08-04T01:32:30.318Z,24.00
2022-08-04T01:35:15.466Z,23.90
2022-08-04T01:38:21.114Z,23.80
2022-08-04T01:40:54.085Z,23.70
2022-08-04T01:43:21.631Z,23.70
2022-08-04T01:45:59.898Z,23.60
2022-08-04T01:48:27.885Z,23.60
2022-08-04T01:51:00.819Z,23.50
2022-08-04T01:53:36.640Z,23.40
2022-08-04T01:56:05.237Z,23.50
2022-08-04T01:58:33.487Z,23.40
2022-08-04T02:01:08.532Z,23.50
2022-08-04T02:04:20.593Z,23.40
2022-08-04T02:06:51.577Z,23.40
2022-08-04T02:09:54.399Z,23.40
2022-08-04T02:12:40.375Z,23.20
2022-08-04T02:15:28.509Z,23.20
2022-08-04T02:18:20.708Z,23.10
2022-08-04T02:20:55.314Z,23.00
2022-08-04T02:23:41.259Z,23.00
2022-08-04T02:26:22.393Z,23.10
2022-08-04T02:29:32.033Z,23.10
2022-08-04T02:32:07.210Z,23.00
2022-08-04T02:34:45.448Z,23.10
2022-08-04T02:37:13.073Z,23.00
2022-08-04T02:39:48.827Z,23.00
2022-08-04T02:42:17.522Z,22.90
2022-08-04T02:44:50.064Z,22.90
2022-08-04T02:47:21.507Z,22.80
2022-08-04T02:49:51.262Z,22.80
2022-08-04T02:52:19.738Z,22.70
2022-08-04T02:54:53.434Z,22.70
2022-08-04T02:57:23.961Z,22.70
2022-08-04T03:00:15.117Z,22.70
2022-08-04T03:03:00.079Z,22.60
2022-08-04T03:06:00.541Z,22.50
2022-08-04T03:08:43.731Z,22.50
2022-08-04T03:11:32.132Z,22.40
2022-08-04T03:14:23.904Z,22.40
2022-08-04T03:17:02.044Z,22.30
2022-08-04T03:19:46.152Z,22.30
2022-08-04T03:22:53.775Z,22.30
2022-08-04T03:25:56.676Z,22.30
2022-08-04T03:29:08.051Z,22.30
2022-08-04T03:31:49.590Z,22.20
2022-08-04T03:34:31.225Z,22.10
2022-08-04T03:37:06.672Z,22.00
2022-08-04T03:39:44.984Z,22.00
2022-08-04T03:42:39.148Z,22.00
2022-08-04T03:45:33.129Z,21.90
2022-08-04T03:48:25.965Z,21.90
2022-08-04T03:51:36.570Z,21.80
2022-08-04T03:54:33.999Z,21.80
2022-08-04T03:57:26.868Z,21.80
2022-08-04T04:00:09.308Z,21.70
2022-08-04T04:02:56.988Z,21.80
2022-08-04T04:06:00.238Z,21.80
2022-08-04T04:08:48.074Z,21.70
2022-08-04T04:11:25.442Z,21.80
2022-08-04T04:14:07.013Z,21.70
2022-08-04T04:17:01.685Z,21.70
2022-08-04T04:19:51.620Z,21.80
2022-08-04T04:22:31.004Z,21.70
2022-08-04T04:25:18.346Z,21.70
2022-08-04T04:28:43.595Z,21.70
2022-08-04T04:31:17.194Z,21.70
2022-08-04T04:34:08.074Z,21.70
2022-08-04T04:36:58.601Z,21.70
2022-08-04T04:39:31.299Z,21.70
2022-08-04T04:42:13.120Z,21.80
2022-08-04T04:45:18.378Z,21.80
2022-08-04T04:48:10.681Z,21.80
2022-08-04T04:51:05.533Z,21.80
2022-08-04T04:54:01.297Z,21.80
2022-08-04T04:56:51.020Z,21.90
2022-08-04T04:59:22.369Z,21.90
2022-08-04T05:02:01.388Z,21.90
2022-08-04T05:04:55.369Z,21.90
2022-08-04T05:07:54.326Z,21.90
2022-08-04T05:10:45.916Z,22.00
2022-08-04T05:14:34.553Z,21.90
2022-08-04T05:16:40.396Z,22.00
2022-08-04T05:19:11.667Z,22.00
2022-08-04T05:21:50.002Z,22.10
2022-08-04T05:24:22.271Z,22.20
2022-08-04T05:26:55.000Z,22.30
2022-08-04T05:29:30.889Z,22.30
2022-08-04T05:32:01.219Z,22.40
2022-08-04T05:34:31.857Z,22.40
2022-08-04T05:37:01.675Z,22.50
2022-08-04T05:39:34.470Z,22.50
2022-08-04T05:42:04.602Z,22.60
2022-08-04T05:44:34.098Z,22.70
2022-08-04T05:47:02.426Z,22.70
2022-08-04T05:49:29.870Z,22.80
2022-08-04T05:52:02.329Z,22.80
2022-08-04T05:54:33.718Z,22.90
2022-08-04T05:57:02.942Z,22.90
2022-08-04T05:59:31.065Z,23.00
2022-08-04T06:02:00.713Z,23.10
2022-08-04T06:04:39.924Z,23.20
2022-08-04T06:07:07.912Z,23.30
2022-08-04T06:09:37.432Z,23.40
2022-08-04T06:12:09.017Z,23.50
2022-08-04T06:14:45.498Z,23.60
2022-08-04T06:19:57.140Z,23.60
2022-08-04T06:20:19.955Z,23.70
2022-08-04T06:23:00.130Z,23.80
2022-08-04T06:25:32.334Z,23.90
2022-08-04T06:28:00.747Z,23.90
2022-08-04T06:30:30.463Z,24.00
2022-08-04T06:33:03.493Z,24.00
2022-08-04T06:35:32.501Z,24.10
2022-08-04T06:38:01.141Z,24.20
2022-08-04T06:40:33.650Z,24.30
2022-08-04T06:43:06.356Z,24.40
2022-08-04T06:45:35.817Z,24.40
2022-08-04T06:48:05.070Z,24.50
2022-08-04T06:51:32.108Z,24.60
2022-08-04T06:53:25.534Z,24.60
2022-08-04T06:55:56.414Z,24.70
2022-08-04T06:58:24.729Z,24.70
2022-08-04T07:00:52.932Z,24.80
2022-08-04T07:03:21.580Z,24.80
2022-08-04T07:05:49.565Z,24.90
2022-08-04T07:08:16.994Z,25.00
2022-08-04T07:10:45.813Z,25.20
2022-08-04T07:13:13.110Z,25.30
2022-08-04T07:15:43.866Z,25.40
2022-08-04T07:18:10.727Z,25.40
2022-08-04T07:20:42.036Z,25.50
2022-08-04T07:23:10.108Z,25.60
2022-08-04T07:25:59.599Z,25.70
2022-08-04T07:28:28.939Z,25.80
2022-08-04T07:31:01.873Z,25.90
2022-08-04T07:33:31.690Z,26.00
2022-08-04T07:36:10.544Z,26.10
2022-08-04T07:38:48.673Z,26.20
2022-08-04T07:41:40.356Z,26.30
2022-08-04T07:44:07.893Z,26.40
2022-08-04T07:46:35.510Z,26.50
2022-08-04T07:49:03.419Z,26.60
2022-08-04T07:51:31.559Z,26.70
2022-08-04T07:54:00.258Z,26.90
2022-08-04T07:56:27.899Z,27.00
2022-08-04T07:58:55.800Z,27.10
2022-08-04T08:01:24.276Z,27.30
2022-08-04T08:03:53.316Z,27.40
2022-08-04T08:06:32.956Z,27.50
2022-08-04T08:09:12.425Z,27.60
2022-08-04T08:12:35.187Z,27.70
2022-08-04T08:14:36.708Z,27.70
2022-08-04T08:17:04.766Z,27.80
2022-08-04T08:19:33.069Z,27.90
2022-08-04T08:22:01.614Z,28.10
2022-08-04T08:24:35.295Z,28.20
2022-08-04T08:27:04.521Z,28.30
2022-08-04T08:29:34.519Z,28.40
2022-08-04T08:32:07.825Z,28.50
2022-08-04T08:34:40.421Z,28.70
2022-08-04T08:37:09.874Z,28.80
2022-08-04T08:39:42.679Z,29.00
2022-08-04T08:42:45.521Z,29.10
2022-08-04T08:45:30.432Z,29.30
2022-08-04T08:48:11.403Z,29.50
2022-08-04T08:51:08.527Z,29.60
2022-08-04T08:53:44.159Z,29.70
2022-08-04T08:56:35.174Z,29.80
2022-08-04T08:59:15.397Z,29.80
2022-08-04T09:02:19.839Z,29.80
2022-08-04T09:05:06.529Z,29.90
2022-08-04T09:08:04.062Z,30.10
2022-08-04T09:10:48.084Z,30.30
2022-08-04T09:13:21.183Z,30.40
2022-08-04T09:16:06.210Z,30.60
2022-08-04T09:18:47.482Z,30.70
2022-08-04T09:21:27.381Z,30.70
2022-08-04T09:24:36.858Z,30.80
2022-08-04T09:27:05.433Z,30.90
2022-08-04T09:29:57.206Z,31.00
2022-08-04T09:32:49.544Z,31.00
2022-08-04T09:35:35.101Z,31.10
2022-08-04T09:38:18.745Z,31.40
2022-08-04T09:40:53.094Z,31.50
2022-08-04T09:43:58.979Z,31.50
2022-08-04T09:46:35.451Z,31.70
2022-08-04T09:49:50.499Z,31.80
2022-08-04T09:52:46.858Z,31.90
2022-08-04T09:55:53.152Z,32.00
2022-08-04T09:58:51.344Z,32.10
2022-08-04T10:01:27.198Z,32.20
2022-08-04T10:04:01.807Z,32.30
2022-08-04T10:07:09.097Z,32.40
2022-08-04T10:10:05.912Z,32.50
2022-08-04T10:13:09.609Z,32.60
2022-08-04T10:16:17.173Z,32.50
2022-08-04T10:19:17.405Z,32.50
2022-08-04T10:22:27.967Z,32.70
2022-08-04T10:26:02.844Z,32.80
2022-08-04T10:28:17.173Z,33.00
2022-08-04T10:31:00.839Z,33.20
2022-08-04T10:33:44.997Z,33.30
2022-08-04T10:36:15.809Z,33.40
2022-08-04T10:38:56.343Z,33.50
2022-08-04T10:42:06.150Z,33.60
2022-08-04T10:44:58.115Z,33.50
2022-08-04T10:47:30.756Z,33.40
2022-08-04T10:50:02.757Z,33.60
2022-08-04T10:52:47.283Z,33.80
2022-08-04T10:55:20.395Z,34.00
2022-08-04T10:57:47.311Z,34.00
2022-08-04T11:00:19.896Z,34.00
2022-08-04T11:03:09.043Z,34.00
2022-08-04T11:05:50.952Z,34.10
2022-08-04T11:08:36.701Z,34.30
2022-08-04T11:11:26.275Z,34.40
2022-08-04T11:14:20.634Z,34.30
2022-08-04T11:17:06.455Z,34.40
2022-08-04T11:20:32.196Z,34.60
2022-08-04T11:23:12.967Z,34.70
2022-08-04T11:25:55.394Z,34.90
2022-08-04T11:29:04.429Z,34.90
2022-08-04T11:31:35.303Z,34.70
2022-08-04T11:34:11.839Z,34.70
2022-08-04T11:36:49.606Z,34.90
2022-08-04T11:39:27.509Z,35.00
2022-08-04T11:42:20.528Z,35.10
2022-08-04T11:44:47.961Z,35.20
2022-08-04T11:47:43.839Z,35.50
2022-08-04T11:50:28.365Z,35.70
2022-08-04T11:52:56.916Z,35.80
2022-08-04T11:55:26.074Z,35.80
2022-08-04T11:57:55.788Z,35.70
2022-08-04T12:00:24.336Z,35.80
2022-08-04T12:03:00.043Z,35.80
2022-08-04T12:05:37.793Z,35.70
2022-08-04T12:08:19.305Z,35.80
2022-08-04T12:11:01.214Z,35.80
2022-08-04T12:13:49.034Z,35.90
2022-08-04T12:16:32.537Z,36.00
2022-08-04T12:19:09.929Z,36.10
2022-08-04T12:21:48.028Z,36.30
2022-08-04T12:24:31.190Z,36.30
2022-08-04T12:27:30.888Z,36.40
2022-08-04T12:31:01.474Z,36.40
2022-08-04T12:33:06.848Z,36.30
2022-08-04T12:36:05.263Z,36.30
2022-08-04T12:38:44.435Z,36.30
2022-08-04T12:41:13.666Z,36.20
2022-08-04T12:43:47.061Z,36.20
2022-08-04T12:46:24.050Z,36.30
2022-08-04T12:48:51.375Z,36.40
2022-08-04T12:52:06.034Z,36.40
2022-08-04T12:54:12.128Z,36.40
2022-08-04T12:56:42.541Z,36.50
2022-08-04T12:59:12.955Z,36.40
2022-08-04T13:02:08.122Z,36.30
2022-08-04T13:04:34.824Z,36.20
2022-08-04T13:07:15.270Z,36.20
2022-08-04T13:09:43.061Z,36.30
2022-08-04T13:12:20.691Z,36.40
2022-08-04T13:14:53.626Z,36.60
2022-08-04T13:17:20.431Z,36.70
2022-08-04T13:19:55.003Z,36.70
2022-08-04T13:22:30.943Z,36.70
2022-08-04T13:26:40.516Z,36.80
2022-08-04T13:27:48.646Z,36.90
2022-08-04T13:30:23.156Z,36.90
2022-08-04T13:32:58.773Z,36.80
2022-08-04T13:35:54.621Z,36.90
2022-08-04T13:38:18.965Z,36.90
2022-08-04T13:40:46.728Z,36.90
2022-08-04T13:44:15.587Z,37.00
2022-08-04T13:46:27.978Z,37.00
2022-08-04T13:49:25.958Z,36.90
2022-08-04T13:51:59.291Z,36.80
2022-08-04T13:54:42.901Z,36.70
2022-08-04T13:57:27.797Z,36.60
2022-08-04T14:00:00.007Z,36.70
2022-08-04T14:02:32.569Z,36.70
2022-08-04T14:05:18.672Z,36.70
2022-08-04T14:07:49.686Z,36.60
2022-08-04T14:10:16.525Z,36.60
2022-08-04T14:12:51.843Z,36.60
2022-08-04T14:16:01.345Z,36.70
2022-08-04T14:18:28.852Z,36.90
2022-08-04T14:21:11.383Z,36.90
2022-08-04T14:23:57.475Z,36.90
2022-08-04T14:26:33.392Z,36.90
2022-08-04T14:29:26.546Z,37.00
2022-08-04T14:32:02.989Z,37.00
2022-08-04T14:34:30.659Z,37.10
2022-08-04T14:37:16.862Z,37.10
2022-08-04T14:40:08.461Z,37.10
2022-08-04T14:42:54.726Z,37.00
2022-08-04T14:45:38.130Z,37.00
2022-08-04T14:48:14.561Z,37.00
2022-08-04T14:50:46.536Z,37.00
2022-08-04T14:53:22.187Z,37.00
2022-08-04T14:55:51.412Z,36.90
2022-08-04T14:58:34.308Z,36.90
2022-08-04T15:01:11.833Z,36.90
2022-08-04T15:03:50.782Z,36.90
2022-08-04T15:06:25.967Z,36.90
2022-08-04T15:08:54.904Z,36.90
2022-08-04T15:11:24.765Z,36.90
2022-08-04T15:13:55.701Z,36.80
2022-08-04T15:16:27.273Z,36.90
2022-08-04T15:18:56.951Z,36.90
2022-08-04T15:21:28.817Z,36.90
2022-08-04T15:23:57.878Z,37.00
2022-08-04T15:26:35.251Z,37.00
2022-08-04T15:29:25.082Z,36.80
2022-08-04T15:32:07.865Z,36.80
2022-08-04T15:34:50.516Z,36.80
2022-08-04T15:37:36.885Z,36.90
2022-08-04T15:40:13.926Z,37.20
2022-08-04T15:42:48.829Z,37.60
2022-08-04T15:45:21.497Z,38.10
2022-08-04T15:48:06.643Z,38.70
2022-08-04T15:50:36.109Z,39.40
2022-08-04T15:53:10.620Z,40.00
2022-08-04T15:55:43.988Z,40.10
2022-08-04T15:58:13.458Z,40.50
2022-08-04T16:00:53.999Z,40.70
2022-08-04T16:03:54.291Z,41.10
2022-08-04T16:06:27.509Z,41.20
2022-08-04T16:09:04.730Z,41.10
2022-08-04T16:11:37.089Z,41.10
2022-08-04T16:14:03.951Z,41.10
2022-08-04T16:16:45.311Z,41.00
2022-08-04T16:19:55.109Z,41.00
2022-08-04T16:22:34.606Z,40.80
2022-08-04T16:25:01.556Z,40.40
2022-08-04T16:27:48.649Z,40.30
2022-08-04T16:30:15.436Z,40.00
2022-08-04T16:32:46.794Z,39.90
2022-08-04T16:35:21.291Z,39.80
2022-08-04T16:37:50.478Z,39.70
2022-08-04T16:40:33.714Z,39.40
2022-08-04T16:43:16.607Z,39.10
2022-08-04T16:45:50.928Z,38.90
2022-08-04T16:48:20.105Z,38.70
2022-08-04T16:50:51.181Z,38.60
2022-08-04T16:53:53.539Z,38.60
2022-08-04T16:56:08.915Z,38.50
2022-08-04T16:58:36.991Z,38.30
2022-08-04T17:01:32.163Z,38.20
2022-08-04T17:04:07.691Z,38.10
2022-08-04T17:06:47.868Z,38.00
2022-08-04T17:09:17.528Z,38.00
2022-08-04T17:11:45.910Z,37.90
2022-08-04T17:14:13.085Z,37.80
2022-08-04T17:16:42.251Z,37.70
2022-08-04T17:19:24.219Z,37.50
2022-08-04T17:22:03.952Z,37.30
2022-08-04T17:24:33.445Z,37.10
2022-08-04T17:27:00.744Z,36.90
2022-08-04T17:29:44.925Z,36.70
2022-08-04T17:32:16.895Z,36.50
2022-08-04T17:34:48.552Z,36.30
2022-08-04T17:40:13.980Z,35.90
2022-08-04T17:42:41.878Z,35.70
2022-08-04T17:45:51.279Z,35.60
2022-08-04T17:48:10.120Z,35.40
2022-08-04T17:50:36.829Z,35.30
2022-08-04T17:53:13.540Z,35.10
2022-08-04T17:55:49.499Z,35.10
2022-08-04T17:58:22.856Z,34.90
2022-08-04T18:01:22.463Z,34.90
2022-08-04T18:03:51.784Z,34.80
2022-08-04T18:06:20.062Z,34.70
2022-08-04T18:08:58.951Z,34.60
2022-08-04T18:11:57.709Z,34.50
2022-08-04T18:14:28.779Z,34.40
2022-08-04T18:16:58.100Z,34.30
2022-08-04T18:19:25.170Z,34.30
2022-08-04T18:21:59.361Z,34.20
2022-08-04T18:24:34.394Z,34.10
2022-08-04T18:27:20.268Z,34.00
2022-08-04T18:30:14.609Z,33.90
2022-08-04T18:32:34.306Z,33.80
2022-08-04T18:35:05.507Z,33.60
2022-08-04T18:38:03.697Z,33.50
2022-08-04T18:40:27.362Z,33.50
2022-08-04T18:42:58.306Z,33.50
2022-08-04T18:45:34.278Z,33.30
2022-08-04T18:48:02.514Z,33.30
2022-08-04T18:50:58.688Z,33.20
2022-08-04T18:53:17.881Z,33.20
2022-08-04T18:58:31.486Z,33.10
2022-08-04T19:01:01.193Z,33.00
2022-08-04T19:03:32.918Z,32.80
2022-08-04T19:06:00.757Z,32.70
2022-08-04T19:08:34.844Z,32.60
2022-08-04T19:11:28.690Z,32.60
2022-08-04T19:13:54.845Z,32.40
2022-08-04T19:16:27.139Z,32.30
2022-08-04T19:18:55.547Z,32.20
2022-08-04T19:22:01.035Z,32.00
2022-08-04T19:24:31.296Z,31.80
2022-08-04T19:26:59.266Z,31.70
2022-08-04T19:29:25.949Z,31.60
2022-08-04T19:32:13.869Z,31.60
2022-08-04T19:34:47.586Z,31.50
2022-08-04T19:37:56.233Z,31.30
2022-08-04T19:40:08.208Z,31.30
2022-08-04T19:42:36.580Z,31.20
2022-08-04T19:45:06.568Z,31.20
2022-08-04T19:48:11.674Z,31.20
2022-08-04T19:50:20.325Z,31.10
2022-08-04T19:52:55.778Z,31.10
2022-08-04T19:55:37.229Z,31.00
2022-08-04T19:58:07.334Z,30.90
2022-08-04T20:00:38.759Z,30.90
2022-08-04T20:03:11.339Z,30.80
2022-08-04T20:05:55.065Z,30.70
2022-08-04T20:08:24.264Z,30.60
2022-08-04T20:10:52.347Z,30.60
2022-08-04T20:13:25.391Z,30.60
2022-08-04T20:15:58.914Z,30.50
2022-08-04T20:18:36.693Z,30.50
2022-08-04T20:21:19.762Z,30.50
2022-08-04T20:23:51.623Z,30.40
2022-08-04T20:26:20.885Z,30.40
2022-08-04T20:28:52.126Z,30.40
2022-08-04T20:31:23.687Z,30.40
2022-08-04T20:34:00.965Z,30.40
2022-08-04T20:36:27.840Z,30.30
2022-08-04T20:38:55.541Z,30.30
2022-08-04T20:41:24.848Z,30.20
2022-08-04T20:44:05.790Z,30.20
2022-08-04T20:46:37.572Z,30.20
2022-08-04T20:49:04.299Z,30.10
2022-08-04T20:51:33.530Z,30.10
2022-08-04T20:54:03.415Z,30.00
2022-08-04T20:56:50.537Z,30.00
2022-08-04T20:59:18.424Z,29.90
2022-08-04T21:01:49.030Z,29.90
2022-08-04T21:04:35.741Z,29.80
2022-08-04T21:07:10.322Z,29.80
2022-08-04T21:09:42.521Z,29.80
2022-08-04T21:12:27.340Z,29.70
2022-08-04T21:15:01.396Z,29.70
2022-08-04T21:20:27.703Z,29.50
2022-08-04T21:22:54.998Z,29.50
2022-08-04T21:25:22.393Z,29.40
2022-08-04T21:27:49.734Z,29.40
2022-08-04T21:30:25.326Z,29.30
2022-08-04T21:32:55.447Z,29.30
2022-08-04T21:35:30.115Z,29.30
2022-08-04T21:38:04.110Z,29.30
2022-08-04T21:40:54.276Z,29.20
2022-08-04T21:43:27.299Z,29.20
2022-08-04T21:45:56.035Z,29.20
2022-08-04T21:48:27.410Z,29.20
2022-08-04T21:50:54.692Z,29.20
2022-08-04T21:53:21.892Z,29.20
2022-08-04T21:56:06.581Z,29.30
2022-08-04T21:58:35.202Z,29.30
2022-08-04T22:01:13.336Z,29.40
2022-08-04T22:03:52.417Z,29.40
2022-08-04T22:06:28.432Z,29.40
2022-08-04T22:08:56.938Z,29.50
2022-08-04T22:11:43.777Z,29.50
2022-08-04T22:14:11.895Z,29.50
2022-08-04T22:16:39.945Z,29.60
2022-08-04T22:19:08.816Z,29.60
2022-08-04T22:21:39.271Z,29.70
2022-08-04T22:24:13.698Z,29.70
2022-08-04T22:26:41.228Z,29.70
2022-08-04T22:29:14.374Z,29.70
2022-08-04T22:31:56.011Z,29.60
2022-08-04T22:34:24.648Z,29.60
2022-08-04T22:36:54.040Z,29.50
2022-08-04T22:39:23.565Z,29.40
2022-08-04T22:42:04.107Z,29.40
2022-08-04T22:44:34.529Z,29.30
2022-08-04T22:47:04.739Z,29.20
2022-08-04T22:49:32.584Z,29.10
2022-08-04T22:52:03.018Z,29.10
2022-08-04T22:54:36.848Z,29.10
2022-08-04T22:57:06.600Z,29.00
2022-08-04T22:59:42.599Z,28.80
2022-08-04T23:02:09.813Z,28.70
2022-08-04T23:04:38.884Z,28.60
2022-08-04T23:07:09.539Z,28.60
2022-08-04T23:09:50.216Z,28.40
2022-08-04T23:12:26.965Z,28.40
2022-08-04T23:14:55.851Z,28.30
2022-08-04T23:17:26.677Z,28.20
2022-08-04T23:19:59.687Z,28.20
2022-08-04T23:22:42.101Z,28.20
2022-08-04T23:25:15.863Z,28.20
2022-08-04T23:27:48.126Z,28.30
2022-08-04T23:30:19.386Z,28.30
2022-08-04T23:32:46.162Z,28.30
2022-08-04T23:35:15.135Z,28.40
2022-08-04T23:37:56.147Z,28.40
2022-08-04T23:40:34.393Z,28.40
2022-08-04T23:43:12.000Z,28.50
2022-08-04T23:46:04.574Z,28.50
2022-08-04T23:48:30.213Z,28.60
2022-08-04T23:51:14.808Z,28.60
2022-08-04T23:54:03.622Z,28.60
2022-08-04T23:56:32.773Z,28.70
2022-08-04T23:59:03.463Z,28.60
